createdAt,value
2023-02-19T00:02:12.775Z,60.67
2023-02-19T00:04:41.003Z,62.40
2023-02-19T00:07:07.952Z,70.28
2023-02-19T00:09:35.566Z,67.05
2023-02-19T00:12:03.454Z,75.90
2023-02-19T00:14:33.713Z,75.47
2023-02-19T00:17:02.220Z,87.17
2023-02-19T00:19:30.385Z,96.15
2023-02-19T00:24:35.872Z,82.42
2023-02-19T00:29:30.444Z,74.82
2023-02-19T00:34:24.717Z,69.37
2023-02-19T00:36:52.600Z,57.23
2023-02-19T00:39:23.411Z,58.13
2023-02-19T00:41:51.217Z,49.03
2023-02-19T00:44:18.426Z,49.08
2023-02-19T00:46:56.802Z,42.75
2023-02-19T00:49:24.614Z,39.03
2023-02-19T00:51:53.994Z,35.20
2023-02-19T00:54:26.828Z,33.75
2023-02-19T00:56:55.505Z,34.73
2023-02-19T00:59:23.519Z,37.15
2023-02-19T01:01:52.390Z,32.17
2023-02-19T01:04:20.224Z,30.20
2023-02-19T01:06:48.375Z,32.55
2023-02-19T01:09:16.108Z,31.12
2023-02-19T01:11:44.374Z,32.38
2023-02-19T01:14:13.339Z,28.52
2023-02-19T01:19:07.318Z,31.23
2023-02-19T01:21:35.092Z,30.88
2023-02-19T01:24:04.521Z,34.23
2023-02-19T01:26:36.168Z,29.70
2023-02-19T01:29:04.590Z,32.28
2023-02-19T01:31:32.754Z,31.20
2023-02-19T01:34:03.946Z,28.15
2023-02-19T01:36:33.951Z,29.90
2023-02-19T01:39:06.627Z,27.07
2023-02-19T01:41:40.087Z,27.77
2023-02-19T01:44:23.378Z,33.65
2023-02-19T01:46:52.794Z,31.50
2023-02-19T01:49:26.010Z,28.70
2023-02-19T01:52:07.701Z,28.87
2023-02-19T01:54:38.247Z,29.48
2023-02-19T01:57:11.136Z,28.15
2023-02-19T01:59:39.813Z,27.70
2023-02-19T02:02:08.573Z,30.23
2023-02-19T02:04:36.334Z,32.55
2023-02-19T02:07:11.271Z,38.53
2023-02-19T02:09:57.170Z,34.45
2023-02-19T02:14:52.590Z,28.90
2023-02-19T02:17:37.736Z,31.52
2023-02-19T02:20:17.362Z,39.88
2023-02-19T02:23:05.321Z,32.25
2023-02-19T02:26:03.320Z,29.67
2023-02-19T02:29:05.729Z,29.85
2023-02-19T02:31:53.243Z,28.87
2023-02-19T02:34:29.279Z,27.52
2023-02-19T02:36:58.541Z,28.42
2023-02-19T02:39:28.213Z,55.10
2023-02-19T02:42:16.619Z,31.27
2023-02-19T02:44:47.078Z,28.12
2023-02-19T02:47:16.929Z,33.02
2023-02-19T02:49:47.442Z,33.78
2023-02-19T02:52:19.047Z,36.77
2023-02-19T02:55:04.872Z,33.30
2023-02-19T02:57:32.849Z,32.73
2023-02-19T03:00:00.806Z,29.72
2023-02-19T03:02:31.441Z,25.08
2023-02-19T03:05:29.138Z,26.40
2023-02-19T03:08:11.276Z,26.80
2023-02-19T03:10:54.970Z,27.10
2023-02-19T03:13:53.776Z,29.27
2023-02-19T03:16:47.138Z,32.63
2023-02-19T03:19:19.133Z,28.10
2023-02-19T03:22:09.626Z,26.93
2023-02-19T03:25:01.403Z,28.25
2023-02-19T03:27:31.931Z,26.90
2023-02-19T03:30:06.483Z,26.07
2023-02-19T03:33:00.684Z,27.22
2023-02-19T03:35:31.713Z,23.70
2023-02-19T03:38:11.932Z,26.17
2023-02-19T03:40:57.303Z,24.47
2023-02-19T03:43:49.838Z,27.22
2023-02-19T03:46:22.670Z,28.52
2023-02-19T03:49:01.753Z,24.82
2023-02-19T03:51:44.505Z,25.55
2023-02-19T03:54:35.934Z,25.60
2023-02-19T03:57:33.405Z,23.40
2023-02-19T04:00:54.241Z,23.35
2023-02-19T04:03:52.312Z,24.15
2023-02-19T04:06:30.135Z,24.72
2023-02-19T04:09:03.485Z,22.98
2023-02-19T04:11:32.707Z,21.62
2023-02-19T04:14:16.547Z,28.00
2023-02-19T04:16:50.258Z,27.37
2023-02-19T04:19:21.292Z,29.80
2023-02-19T04:21:51.067Z,29.57
2023-02-19T04:24:35.857Z,23.27
2023-02-19T04:27:05.748Z,22.63
2023-02-19T04:29:33.314Z,21.70
2023-02-19T04:32:01.079Z,22.45
2023-02-19T04:34:28.944Z,22.58
2023-02-19T04:36:57.065Z,24.27
2023-02-19T04:39:24.818Z,23.95
2023-02-19T04:41:52.600Z,22.48
2023-02-19T04:44:20.471Z,25.00
2023-02-19T04:46:48.283Z,29.05
2023-02-19T04:49:16.120Z,24.32
2023-02-19T04:51:44.036Z,27.22
2023-02-19T04:54:11.630Z,25.25
2023-02-19T04:56:40.274Z,27.87
2023-02-19T04:59:08.092Z,28.17
2023-02-19T05:01:35.686Z,31.50
2023-02-19T05:04:04.560Z,29.57
2023-02-19T05:06:32.405Z,28.25
2023-02-19T05:09:00.295Z,24.45
2023-02-19T05:11:28.180Z,26.42
2023-02-19T05:13:55.899Z,22.62
2023-02-19T05:16:23.860Z,21.80
2023-02-19T05:18:51.360Z,24.10
2023-02-19T05:21:19.124Z,21.97
2023-02-19T05:23:46.781Z,24.07
2023-02-19T05:26:19.886Z,22.80
2023-02-19T05:28:51.056Z,26.48
2023-02-19T05:31:19.976Z,26.45
2023-02-19T05:33:50.202Z,24.20
2023-02-19T05:36:20.602Z,23.67
2023-02-19T05:38:55.875Z,21.35
2023-02-19T05:41:30.820Z,27.00
2023-02-19T05:44:05.186Z,24.80
2023-02-19T05:46:34.397Z,23.98
2023-02-19T05:49:03.193Z,25.10
2023-02-19T05:51:30.795Z,25.40
2023-02-19T05:53:58.485Z,26.40
2023-02-19T05:56:35.920Z,25.02
2023-02-19T05:59:09.166Z,23.85
2023-02-19T06:01:36.931Z,44.18
2023-02-19T06:04:05.486Z,38.08
2023-02-19T06:06:33.474Z,42.05
2023-02-19T06:09:01.379Z,43.42
2023-02-19T06:11:29.826Z,35.63
2023-02-19T06:13:57.686Z,43.45
2023-02-19T06:16:26.275Z,39.15
2023-02-19T06:18:54.134Z,39.45
2023-02-19T06:21:23.888Z,34.43
2023-02-19T06:24:01.478Z,36.53
2023-02-19T06:26:29.765Z,36.55
2023-02-19T06:28:57.634Z,44.03
2023-02-19T06:31:25.622Z,44.70
2023-02-19T06:33:55.327Z,69.37
2023-02-19T06:36:23.734Z,60.65
2023-02-19T06:38:52.249Z,53.50
2023-02-19T06:41:19.946Z,48.95
2023-02-19T06:43:47.556Z,48.70
2023-02-19T06:46:15.235Z,52.23
2023-02-19T06:48:44.826Z,51.68
2023-02-19T06:51:15.639Z,50.58
2023-02-19T06:53:43.437Z,49.08
2023-02-19T06:56:27.808Z,50.03
2023-02-19T06:59:02.340Z,51.98
2023-02-19T07:01:32.866Z,58.38
2023-02-19T07:04:01.755Z,63.60
2023-02-19T07:06:31.098Z,62.15
2023-02-19T07:09:00.008Z,64.32
2023-02-19T07:11:31.873Z,72.32
2023-02-19T07:14:02.506Z,67.20
2023-02-19T07:16:30.981Z,69.30
2023-02-19T07:19:14.576Z,76.72
2023-02-19T07:21:42.166Z,67.72
2023-02-19T07:24:10.616Z,61.60
2023-02-19T07:26:38.384Z,59.85
2023-02-19T07:29:07.055Z,61.70
2023-02-19T07:31:35.387Z,60.28
2023-02-19T07:34:05.013Z,49.58
2023-02-19T07:36:33.412Z,53.80
2023-02-19T07:39:02.030Z,43.78
2023-02-19T07:41:29.938Z,36.58
2023-02-19T07:43:58.749Z,42.13
2023-02-19T07:46:26.827Z,32.55
2023-02-19T07:48:54.586Z,39.60
2023-02-19T07:51:23.392Z,41.73
2023-02-19T07:53:51.831Z,33.05
2023-02-19T07:59:15.682Z,57.75
2023-02-19T08:02:04.453Z,51.55
2023-02-19T08:04:35.243Z,37.50
2023-02-19T08:07:04.842Z,22.65
2023-02-19T08:12:36.150Z,18.85
2023-02-19T08:15:08.020Z,86.30
2023-02-19T08:20:00.533Z,44.77
2023-02-19T08:22:28.003Z,20.32
2023-02-19T08:24:57.775Z,20.17
2023-02-19T08:27:28.508Z,44.88
2023-02-19T08:30:11.852Z,17.52
2023-02-19T08:32:43.679Z,24.75
2023-02-19T08:35:30.922Z,63.10
2023-02-19T08:37:59.074Z,43.98
2023-02-19T08:40:25.889Z,16.23
2023-02-19T08:42:53.886Z,29.98
2023-02-19T08:45:23.689Z,38.17
2023-02-19T08:47:51.600Z,15.93
2023-02-19T08:50:23.945Z,18.82
2023-02-19T08:52:54.206Z,17.30
2023-02-19T08:55:21.959Z,11.28
2023-02-19T08:57:51.078Z,17.70
2023-02-19T09:00:20.827Z,25.43
2023-02-19T09:02:49.372Z,12.75
2023-02-19T09:05:17.574Z,15.65
2023-02-19T09:07:45.489Z,12.18
2023-02-19T09:10:14.062Z,12.60
2023-02-19T09:12:42.256Z,25.48
2023-02-19T09:15:10.131Z,11.43
2023-02-19T09:17:38.564Z,20.40
2023-02-19T09:20:07.654Z,15.58
2023-02-19T09:22:35.412Z,11.80
2023-02-19T09:25:03.940Z,18.37
2023-02-19T09:27:31.758Z,29.07
2023-02-19T09:29:59.802Z,23.90
2023-02-19T09:32:30.889Z,11.83
2023-02-19T09:34:59.187Z,14.53
2023-02-19T09:37:28.102Z,12.40
2023-02-19T09:39:55.745Z,13.25
2023-02-19T09:42:29.740Z,12.98
2023-02-19T09:45:00.155Z,19.52
2023-02-19T09:47:33.058Z,12.25
2023-02-19T09:50:12.202Z,15.88
2023-02-19T09:52:45.464Z,13.60
2023-02-19T09:55:38.991Z,106.37
2023-02-19T10:01:56.030Z,11.33
2023-02-19T10:04:25.564Z,12.20
2023-02-19T10:07:09.524Z,12.33
2023-02-19T10:09:38.677Z,15.40
2023-02-19T10:12:17.864Z,15.88
2023-02-19T10:14:49.801Z,18.42
2023-02-19T10:17:28.795Z,15.60
2023-02-19T10:19:58.038Z,15.10
2023-02-19T10:22:25.805Z,27.15
2023-02-19T10:24:56.243Z,27.90
2023-02-19T10:27:30.758Z,42.45
2023-02-19T10:30:00.766Z,47.25
2023-02-19T10:32:29.306Z,40.17
2023-02-19T10:35:15.872Z,26.37
2023-02-19T10:37:49.280Z,26.50
2023-02-19T10:40:27.055Z,72.25
2023-02-19T10:43:08.887Z,29.42
2023-02-19T10:45:53.374Z,32.05
2023-02-19T10:48:27.174Z,26.70
2023-02-19T10:51:10.861Z,29.70
2023-02-19T10:56:35.655Z,28.30
2023-02-19T10:59:32.303Z,27.98
2023-02-19T11:02:07.094Z,23.42
2023-02-19T11:04:39.311Z,29.48
2023-02-19T11:07:17.333Z,27.55
2023-02-19T11:09:49.421Z,29.52
2023-02-19T11:12:24.726Z,63.52
2023-02-19T11:14:52.679Z,79.05
2023-02-19T11:17:32.104Z,64.62
2023-02-19T11:20:07.481Z,32.23
2023-02-19T11:25:18.553Z,119.33
2023-02-19T11:28:09.109Z,68.78
2023-02-19T11:30:43.497Z,134.12
2023-02-19T11:33:22.097Z,132.03
2023-02-19T11:36:14.861Z,45.52
2023-02-19T11:38:44.330Z,60.35
2023-02-19T11:41:36.026Z,75.32
2023-02-19T11:44:51.024Z,64.12
2023-02-19T11:47:57.161Z,45.75
2023-02-19T11:50:50.906Z,45.25
2023-02-19T11:53:37.841Z,36.58
2023-02-19T11:56:19.493Z,41.98
2023-02-19T11:59:15.242Z,69.70
2023-02-19T12:02:14.341Z,57.20
2023-02-19T12:05:21.348Z,59.70
2023-02-19T12:08:32.786Z,62.33
2023-02-19T12:11:37.349Z,82.15
2023-02-19T12:16:56.709Z,59.40
2023-02-19T12:19:39.084Z,58.28
2023-02-19T12:25:23.613Z,60.92
2023-02-19T12:28:02.847Z,63.63
2023-02-19T12:30:49.906Z,94.65
2023-02-19T12:34:05.698Z,86.95
2023-02-19T12:39:23.097Z,64.05
2023-02-19T12:42:33.900Z,52.98
2023-02-19T12:45:07.180Z,56.63
2023-02-19T12:47:39.118Z,61.15
2023-02-19T12:50:23.790Z,105.22
2023-02-19T12:53:04.610Z,110.55
2023-02-19T12:55:43.254Z,86.50
2023-02-19T12:58:18.998Z,88.85
2023-02-19T13:00:54.647Z,85.57
2023-02-19T13:03:35.288Z,70.97
2023-02-19T13:06:36.510Z,69.58
2023-02-19T13:09:14.749Z,69.45
2023-02-19T13:12:21.165Z,71.47
2023-02-19T13:15:19.859Z,91.95
2023-02-19T13:23:27.394Z,62.85
2023-02-19T13:29:05.820Z,56.45
2023-02-19T13:31:53.809Z,62.30
2023-02-19T13:34:48.559Z,59.15
2023-02-19T13:42:36.058Z,77.62
2023-02-19T13:45:06.542Z,65.67
2023-02-19T13:47:58.227Z,66.95
2023-02-19T13:50:32.843Z,87.15
2023-02-19T13:55:51.932Z,53.38
2023-02-19T13:58:37.319Z,52.80
2023-02-19T14:03:57.808Z,50.63
2023-02-19T14:06:26.397Z,61.05
2023-02-19T14:08:59.680Z,73.47
2023-02-19T14:13:56.038Z,85.70
2023-02-19T14:16:40.599Z,83.55
2023-02-19T14:21:40.121Z,89.03
2023-02-19T14:24:14.666Z,88.20
2023-02-19T14:26:42.959Z,88.67
2023-02-19T14:29:14.128Z,85.10
2023-02-19T14:31:45.531Z,84.87
2023-02-19T14:37:01.311Z,73.35
2023-02-19T14:42:22.084Z,77.58
2023-02-19T14:44:59.486Z,72.00
2023-02-19T14:47:37.033Z,85.25
2023-02-19T14:50:15.793Z,78.97
2023-02-19T14:52:49.899Z,79.50
2023-02-19T14:57:49.282Z,74.42
2023-02-19T15:00:25.940Z,51.42
2023-02-19T15:05:27.694Z,44.45
2023-02-19T15:08:03.026Z,41.90
2023-02-19T15:13:10.938Z,47.03
2023-02-19T15:15:43.127Z,47.53
2023-02-19T15:18:24.233Z,50.35
2023-02-19T15:21:00.903Z,50.10
2023-02-19T15:23:31.336Z,44.75
2023-02-19T15:25:59.858Z,55.00
2023-02-19T15:28:32.439Z,52.00
2023-02-19T15:31:05.443Z,38.75
2023-02-19T15:33:34.539Z,38.63
2023-02-19T15:36:11.110Z,41.77
2023-02-19T15:38:38.903Z,48.98
2023-02-19T15:41:07.074Z,42.80
2023-02-19T15:43:43.976Z,37.28
2023-02-19T15:46:21.772Z,41.53
2023-02-19T15:48:57.870Z,93.50
2023-02-19T15:53:56.348Z,29.67
2023-02-19T15:56:33.775Z,32.78
2023-02-19T15:59:28.720Z,32.13
2023-02-19T16:01:57.656Z,48.63
2023-02-19T16:04:25.284Z,51.98
2023-02-19T16:07:01.102Z,30.95
2023-02-19T16:09:39.911Z,20.48
2023-02-19T16:12:23.831Z,19.87
2023-02-19T16:17:25.613Z,20.82
2023-02-19T16:20:00.850Z,21.50
2023-02-19T16:22:33.353Z,21.52
2023-02-19T16:25:05.233Z,16.90
2023-02-19T16:27:41.319Z,17.27
2023-02-19T16:32:47.003Z,20.23
2023-02-19T16:35:36.211Z,29.57
2023-02-19T16:40:50.481Z,15.50
2023-02-19T16:45:55.786Z,17.20
2023-02-19T16:48:24.714Z,22.30
2023-02-19T16:50:51.585Z,22.17
2023-02-19T16:53:24.941Z,21.50
2023-02-19T16:55:52.760Z,23.10
2023-02-19T16:58:21.026Z,18.45
2023-02-19T17:00:52.310Z,14.50
2023-02-19T17:05:50.258Z,8.50
2023-02-19T17:08:36.764Z,21.93
2023-02-19T17:13:30.874Z,16.37
2023-02-19T17:15:58.937Z,18.15
2023-02-19T17:18:27.094Z,15.58
2023-02-19T17:21:12.441Z,22.50
2023-02-19T17:23:41.705Z,20.62
2023-02-19T17:26:16.854Z,24.92
2023-02-19T17:31:12.168Z,21.25
2023-02-19T17:36:07.901Z,12.23
2023-02-19T17:41:02.332Z,34.23
2023-02-19T17:43:30.637Z,79.50
2023-02-19T17:45:58.237Z,21.60
2023-02-19T17:48:26.414Z,20.27
2023-02-19T17:50:54.380Z,17.55
2023-02-19T17:53:22.334Z,9.30
2023-02-19T17:55:50.077Z,9.03
2023-02-19T17:58:20.155Z,11.83
2023-02-19T18:03:14.008Z,12.82
2023-02-19T18:05:41.990Z,17.90
2023-02-19T18:08:08.930Z,17.12
2023-02-19T18:10:36.975Z,15.00
2023-02-19T18:15:31.373Z,16.48
2023-02-19T18:20:28.227Z,23.27
2023-02-19T18:22:57.503Z,25.23
2023-02-19T18:25:41.098Z,20.75
2023-02-19T18:28:07.990Z,22.13
2023-02-19T18:30:36.370Z,29.07
2023-02-19T18:33:06.369Z,27.65
2023-02-19T18:35:37.669Z,12.58
2023-02-19T18:38:06.372Z,5.72
2023-02-19T18:40:34.249Z,4.10
2023-02-19T18:43:02.036Z,6.67
2023-02-19T18:45:31.716Z,7.28
2023-02-19T18:47:59.581Z,7.05
2023-02-19T18:50:27.295Z,3.87
2023-02-19T18:52:55.143Z,5.95
2023-02-19T18:55:23.098Z,9.40
2023-02-19T19:00:22.462Z,5.08
2023-02-19T19:02:57.026Z,3.75
2023-02-19T19:05:25.821Z,3.00
2023-02-19T19:07:55.927Z,4.15
2023-02-19T19:10:24.397Z,5.92
2023-02-19T19:12:51.720Z,6.35
2023-02-19T19:15:20.776Z,5.45
2023-02-19T19:17:48.673Z,5.25
2023-02-19T19:22:50.055Z,10.35
2023-02-19T19:27:46.180Z,7.20
2023-02-19T19:30:14.749Z,10.80
2023-02-19T19:32:42.634Z,8.18
2023-02-19T19:35:11.178Z,10.48
2023-02-19T19:40:06.276Z,9.45
2023-02-19T19:45:00.763Z,5.70
2023-02-19T19:47:28.899Z,5.33
2023-02-19T19:49:56.773Z,4.28
2023-02-19T19:52:24.496Z,6.22
2023-02-19T19:54:53.691Z,7.15
2023-02-19T19:57:21.691Z,8.30
2023-02-19T20:02:18.958Z,9.90
2023-02-19T20:07:13.191Z,14.95
2023-02-19T20:12:20.080Z,8.60
2023-02-19T20:14:48.463Z,6.17
2023-02-19T20:23:51.799Z,5.60
2023-02-19T20:26:51.071Z,7.85
2023-02-19T20:29:39.865Z,9.10
2023-02-19T20:32:14.895Z,7.60
2023-02-19T20:37:40.146Z,4.78
2023-02-19T20:42:36.493Z,4.12
2023-02-19T20:45:05.752Z,5.33
2023-02-19T20:47:33.547Z,5.67
2023-02-19T20:50:01.741Z,4.28
2023-02-19T20:52:29.587Z,4.42
2023-02-19T20:54:57.805Z,8.65
2023-02-19T20:57:27.940Z,4.33
2023-02-19T20:59:55.924Z,3.65
2023-02-19T21:02:28.421Z,3.60
2023-02-19T21:04:57.124Z,4.58
2023-02-19T21:07:26.728Z,6.42
2023-02-19T21:09:54.579Z,4.55
2023-02-19T21:12:22.607Z,4.83
2023-02-19T21:14:50.379Z,9.05
2023-02-19T21:17:18.449Z,7.40
2023-02-19T21:19:49.254Z,8.05
2023-02-19T21:22:17.206Z,4.83
2023-02-19T21:24:46.895Z,4.95
2023-02-19T21:27:15.136Z,8.90
2023-02-19T21:29:42.875Z,10.88
2023-02-19T21:34:37.670Z,18.87
2023-02-19T21:39:33.083Z,5.75
2023-02-19T21:42:02.014Z,5.92
2023-02-19T21:44:29.544Z,4.05
2023-02-19T21:46:57.618Z,2.30
2023-02-19T21:49:26.662Z,4.42
2023-02-19T21:51:54.276Z,3.92
2023-02-19T21:54:24.959Z,3.27
2023-02-19T21:56:54.546Z,4.37
2023-02-19T21:59:23.025Z,3.90
2023-02-19T22:01:50.930Z,3.90
2023-02-19T22:04:23.765Z,3.83
2023-02-19T22:06:56.579Z,3.55
2023-02-19T22:09:24.425Z,3.37
2023-02-19T22:14:17.952Z,3.92
2023-02-19T22:16:45.735Z,3.33
2023-02-19T22:19:13.348Z,4.45
2023-02-19T22:24:18.407Z,3.87
2023-02-19T22:26:49.501Z,4.65
2023-02-19T22:29:17.506Z,3.47
2023-02-19T22:31:45.474Z,4.90
2023-02-19T22:34:15.091Z,7.15
2023-02-19T22:36:43.664Z,4.08
2023-02-19T22:39:22.723Z,4.75
2023-02-19T22:41:51.251Z,5.37
2023-02-19T22:44:19.363Z,11.12
2023-02-19T22:46:58.661Z,12.50
2023-02-19T22:49:26.684Z,5.05
2023-02-19T22:52:07.786Z,6.72
2023-02-19T22:57:01.637Z,5.25
2023-02-19T23:01:56.360Z,4.12
2023-02-19T23:04:25.669Z,2.85
2023-02-19T23:06:52.671Z,4.65
2023-02-19T23:09:24.689Z,3.85
2023-02-19T23:11:53.749Z,2.12
2023-02-19T23:14:25.993Z,2.42
2023-02-19T23:16:53.351Z,1.90
2023-02-19T23:21:48.118Z,1.80
2023-02-19T23:24:16.925Z,1.42
2023-02-19T23:26:47.451Z,2.27
2023-02-19T23:31:41.559Z,1.82
2023-02-19T23:34:10.232Z,3.15
2023-02-19T23:36:47.331Z,2.17
2023-02-19T23:39:17.568Z,1.57
2023-02-19T23:41:52.546Z,1.22
2023-02-19T23:44:22.785Z,0.70
2023-02-19T23:46:51.612Z,1.20
2023-02-19T23:49:19.527Z,2.00
2023-02-19T23:51:47.424Z,1.20
2023-02-19T23:54:15.367Z,1.27
2023-02-19T23:56:43.269Z,1.90
2023-02-19T23:59:10.942Z,0.78
